Danville, IL

10:16 AM CDT on August 22, 2014 (GMT -0500)
Univ Of Illinois-Willard | Change Station
CLOSE
Current Station
Airport
Location: Champaign,
Elevation: 755 ft
Nearby Weather Stations

Elev 755 ft 40.04 °N, 88.28 °W | Updated 23 minutes ago

Light Rain
Light Rain
73 °F
Feels Like 73 °F
N
8
Wind Variable Wind from SSW

Today
High -- | Low -- °F
--% Chance of Precip.
Yesterday
High -- | Low -- °F
Precip. -- in
6:08 AM 7:37 PM
Waning Crescent, 8% visible
Pressure 30.00 in
Visibility 10.0 miles
Clouds Few 7500 ft
Mostly Cloudy 11000 ft
Dew Point 72 °F
Humidity 96%
Rainfall 0.02 in
Snow Depth Not available.
UV 3 out of 12
Pollen 10.20 out of 12
Air Quality Not available.
Flu Activity Not available.
METAR KCMI 221453Z 21007KT 10SM -RA FEW075 BKN110 23/22 A3001 RMK AO2 LTG DSNT E AND W SLP158 P0002 60002 T02280222 50005

More Conditions Fewer Conditions

Pressure 30.00 in
Visibility 10.0 miles
Clouds Few 7500 ft
Mostly Cloudy 11000 ft
Dew Point 72 °F
Humidity 96%
Rainfall 0.02 in
Snow Depth Not available.
UV 3 out of 12
Pollen 10.20 out of 12
Air Quality Not available.
Flu Activity Not available.
METAR KCMI 221453Z 21007KT 10SM -RA FEW075 BKN110 23/22 A3001 RMK AO2 LTG DSNT E AND W SLP158 P0002 60002 T02280222 50005

More Conditions Fewer Conditions

10-Day Weather Forecast

Almanac

Astronomy

Aug. 22, 2014 Rise Set
Actual Time 6:08 AM CDT 7:37 PM CDT
Civil Twilight 5:40 AM CDT 8:05 PM CDT
Nautical Twilight 5:05 AM CDT 8:40 PM CDT
Astronomical Twilight 4:29 AM CDT 9:16 PM CDT
Moon 3:30 AM CDT 5:45 PM CDT
Length of Visible Light 14h 25m
Length of Day
13h 28m
Tomorrow will be 2m 26s shorter.
Waning Crescent, 8% of the Moon is Illuminated
Today
Waning Crescent
Aug 25
New
Sep 2
First Quarter
Sep 8
Full
Sep 15
Last Quarter

Today's Extremes

State Highs State Lows

Community

WunderPhotos

Upload Photos

1,746,187 photos uploaded!

WunderBlogs® & News

Nearby

Snow Depth

Station Depth Elevation
No new snow has been reported.

Earthquake Activity

City Distance Mag. Time & Date
No recent earthquake activity has been reported nearby.
Minimum magnitude displayed is 2.5.

Coastal Water Temperatures

Place Temperature
No Stations Reporting

Nearby Weather Stations